sensor_id;sensor_type;location;lat;lon;timestamp;P1;durP1;ratioP1;P2;durP2;ratioP2
15637;SDS011;26604;53.596;10.042;2022-09-09T00:00:42;13.07;;;7.68;;
15637;SDS011;26604;53.596;10.042;2022-09-09T00:03:14;9.38;;;6.40;;
15637;SDS011;26604;53.596;10.042;2022-09-09T00:05:46;10.13;;;6.82;;
15637;SDS011;26604;53.596;10.042;2022-09-09T00:08:21;13.32;;;7.13;;
15637;SDS011;26604;53.596;10.042;2022-09-09T00:10:51;8.57;;;6.93;;
15637;SDS011;26604;53.596;10.042;2022-09-09T00:13:27;12.45;;;7.40;;
15637;SDS011;26604;53.596;10.042;2022-09-09T00:16:01;9.73;;;7.03;;
15637;SDS011;26604;53.596;10.042;2022-09-09T00:18:36;9.80;;;7.43;;
15637;SDS011;26604;53.596;10.042;2022-09-09T00:21:14;12.02;;;7.88;;
15637;SDS011;26604;53.596;10.042;2022-09-09T00:23:44;11.63;;;8.25;;
15637;SDS011;26604;53.596;10.042;2022-09-09T00:26:16;12.35;;;8.13;;
15637;SDS011;26604;53.596;10.042;2022-09-09T00:28:50;11.48;;;8.02;;
15637;SDS011;26604;53.596;10.042;2022-09-09T00:31:25;11.75;;;9.40;;
15637;SDS011;26604;53.596;10.042;2022-09-09T00:33:54;16.30;;;10.93;;
15637;SDS011;26604;53.596;10.042;2022-09-09T00:36:25;14.70;;;10.32;;
15637;SDS011;26604;53.596;10.042;2022-09-09T00:38:56;17.98;;;12.15;;
15637;SDS011;26604;53.596;10.042;2022-09-09T00:41:28;18.08;;;12.57;;
15637;SDS011;26604;53.596;10.042;2022-09-09T00:44:11;21.55;;;13.25;;
15637;SDS011;26604;53.596;10.042;2022-09-09T00:46:50;19.40;;;12.85;;
15637;SDS011;26604;53.596;10.042;2022-09-09T00:49:30;16.83;;;11.07;;
15637;SDS011;26604;53.596;10.042;2022-09-09T00:52:08;17.83;;;11.25;;
15637;SDS011;26604;53.596;10.042;2022-09-09T00:54:50;23.10;;;14.32;;
15637;SDS011;26604;53.596;10.042;2022-09-09T00:57:23;20.17;;;13.52;;
15637;SDS011;26604;53.596;10.042;2022-09-09T00:59:58;19.70;;;11.85;;
15637;SDS011;26604;53.596;10.042;2022-09-09T01:02:44;21.45;;;12.90;;
15637;SDS011;26604;53.596;10.042;2022-09-09T01:05:21;19.83;;;13.23;;
15637;SDS011;26604;53.596;10.042;2022-09-09T01:07:53;20.30;;;12.45;;
15637;SDS011;26604;53.596;10.042;2022-09-09T01:10:22;17.90;;;11.07;;
15637;SDS011;26604;53.596;10.042;2022-09-09T01:12:54;17.65;;;11.75;;
15637;SDS011;26604;53.596;10.042;2022-09-09T01:15:27;16.88;;;11.35;;
15637;SDS011;26604;53.596;10.042;2022-09-09T01:17:58;16.95;;;10.68;;
15637;SDS011;26604;53.596;10.042;2022-09-09T01:20:29;17.08;;;10.80;;
15637;SDS011;26604;53.596;10.042;2022-09-09T01:23:16;16.67;;;10.68;;
15637;SDS011;26604;53.596;10.042;2022-09-09T01:26:18;16.88;;;10.23;;
15637;SDS011;26604;53.596;10.042;2022-09-09T01:28:49;16.83;;;10.13;;
15637;SDS011;26604;53.596;10.042;2022-09-09T01:31:19;17.48;;;9.98;;
15637;SDS011;26604;53.596;10.042;2022-09-09T01:33:48;17.27;;;9.55;;
15637;SDS011;26604;53.596;10.042;2022-09-09T01:36:18;15.65;;;9.77;;
15637;SDS011;26604;53.596;10.042;2022-09-09T01:38:50;15.77;;;9.65;;
15637;SDS011;26604;53.596;10.042;2022-09-09T01:41:19;16.55;;;9.98;;
15637;SDS011;26604;53.596;10.042;2022-09-09T01:43:46;14.15;;;9.13;;
15637;SDS011;26604;53.596;10.042;2022-09-09T01:46:14;15.13;;;9.00;;
15637;SDS011;26604;53.596;10.042;2022-09-09T01:48:42;12.50;;;8.68;;
15637;SDS011;26604;53.596;10.042;2022-09-09T01:51:09;18.23;;;9.35;;
15637;SDS011;26604;53.596;10.042;2022-09-09T01:53:36;15.80;;;7.82;;
15637;SDS011;26604;53.596;10.042;2022-09-09T01:56:07;15.25;;;7.35;;
15637;SDS011;26604;53.596;10.042;2022-09-09T01:58:51;11.38;;;7.03;;
15637;SDS011;26604;53.596;10.042;2022-09-09T02:01:30;11.15;;;6.78;;
15637;SDS011;26604;53.596;10.042;2022-09-09T02:04:17;11.32;;;6.43;;
15637;SDS011;26604;53.596;10.042;2022-09-09T02:06:51;10.38;;;6.75;;
15637;SDS011;26604;53.596;10.042;2022-09-09T02:09:22;10.15;;;5.88;;
15637;SDS011;26604;53.596;10.042;2022-09-09T02:11:51;7.70;;;5.68;;
15637;SDS011;26604;53.596;10.042;2022-09-09T02:14:27;10.18;;;6.13;;
15637;SDS011;26604;53.596;10.042;2022-09-09T02:16:59;7.97;;;5.28;;
15637;SDS011;26604;53.596;10.042;2022-09-09T02:19:29;10.30;;;6.43;;
15637;SDS011;26604;53.596;10.042;2022-09-09T02:22:00;8.32;;;5.50;;
15637;SDS011;26604;53.596;10.042;2022-09-09T02:24:27;9.07;;;6.10;;
15637;SDS011;26604;53.596;10.042;2022-09-09T02:26:59;8.80;;;6.00;;
15637;SDS011;26604;53.596;10.042;2022-09-09T02:29:33;8.18;;;5.82;;
15637;SDS011;26604;53.596;10.042;2022-09-09T02:32:05;10.57;;;5.80;;
15637;SDS011;26604;53.596;10.042;2022-09-09T02:34:35;9.43;;;5.55;;
15637;SDS011;26604;53.596;10.042;2022-09-09T02:37:06;7.13;;;5.40;;
15637;SDS011;26604;53.596;10.042;2022-09-09T02:39:35;8.32;;;5.88;;
15637;SDS011;26604;53.596;10.042;2022-09-09T02:42:03;8.13;;;5.55;;
15637;SDS011;26604;53.596;10.042;2022-09-09T02:44:30;9.15;;;6.30;;
15637;SDS011;26604;53.596;10.042;2022-09-09T02:47:11;7.63;;;5.18;;
15637;SDS011;26604;53.596;10.042;2022-09-09T02:49:53;8.40;;;5.60;;
15637;SDS011;26604;53.596;10.042;2022-09-09T02:52:31;7.65;;;5.20;;
15637;SDS011;26604;53.596;10.042;2022-09-09T02:55:04;7.20;;;5.53;;
15637;SDS011;26604;53.596;10.042;2022-09-09T02:57:37;7.80;;;6.03;;
15637;SDS011;26604;53.596;10.042;2022-09-09T03:00:08;7.05;;;5.60;;
15637;SDS011;26604;53.596;10.042;2022-09-09T03:02:36;9.00;;;5.28;;
15637;SDS011;26604;53.596;10.042;2022-09-09T03:05:04;7.68;;;5.47;;
15637;SDS011;26604;53.596;10.042;2022-09-09T03:07:31;7.68;;;5.97;;
15637;SDS011;26604;53.596;10.042;2022-09-09T03:09:58;6.93;;;5.30;;
15637;SDS011;26604;53.596;10.042;2022-09-09T03:12:25;7.85;;;5.18;;
15637;SDS011;26604;53.596;10.042;2022-09-09T03:14:52;7.97;;;5.20;;
15637;SDS011;26604;53.596;10.042;2022-09-09T03:17:20;9.05;;;6.18;;
15637;SDS011;26604;53.596;10.042;2022-09-09T03:19:47;6.97;;;4.97;;
15637;SDS011;26604;53.596;10.042;2022-09-09T03:22:14;7.60;;;5.65;;
15637;SDS011;26604;53.596;10.042;2022-09-09T03:24:41;8.85;;;5.00;;
15637;SDS011;26604;53.596;10.042;2022-09-09T03:27:08;7.07;;;5.15;;
15637;SDS011;26604;53.596;10.042;2022-09-09T03:29:35;7.63;;;4.75;;
15637;SDS011;26604;53.596;10.042;2022-09-09T03:32:02;7.40;;;5.15;;
15637;SDS011;26604;53.596;10.042;2022-09-09T03:34:30;7.93;;;5.38;;
15637;SDS011;26604;53.596;10.042;2022-09-09T03:36:57;6.97;;;4.88;;
15637;SDS011;26604;53.596;10.042;2022-09-09T03:39:24;7.82;;;4.88;;
15637;SDS011;26604;53.596;10.042;2022-09-09T03:41:51;9.52;;;5.85;;
15637;SDS011;26604;53.596;10.042;2022-09-09T03:44:17;7.10;;;4.68;;
15637;SDS011;26604;53.596;10.042;2022-09-09T03:46:44;6.63;;;4.97;;
15637;SDS011;26604;53.596;10.042;2022-09-09T03:49:11;7.80;;;4.72;;
15637;SDS011;26604;53.596;10.042;2022-09-09T03:51:39;5.78;;;4.30;;
15637;SDS011;26604;53.596;10.042;2022-09-09T03:54:06;7.28;;;4.28;;
15637;SDS011;26604;53.596;10.042;2022-09-09T03:56:35;7.05;;;4.45;;
15637;SDS011;26604;53.596;10.042;2022-09-09T03:59:02;5.75;;;4.35;;
15637;SDS011;26604;53.596;10.042;2022-09-09T04:01:29;8.30;;;4.63;;
15637;SDS011;26604;53.596;10.042;2022-09-09T04:03:56;7.38;;;4.45;;
15637;SDS011;26604;53.596;10.042;2022-09-09T04:06:24;6.45;;;4.07;;
15637;SDS011;26604;53.596;10.042;2022-09-09T04:08:53;7.63;;;4.13;;
15637;SDS011;26604;53.596;10.042;2022-09-09T04:11:20;7.35;;;4.43;;
15637;SDS011;26604;53.596;10.042;2022-09-09T04:13:47;6.78;;;4.22;;
15637;SDS011;26604;53.596;10.042;2022-09-09T04:16:15;6.97;;;4.07;;
15637;SDS011;26604;53.596;10.042;2022-09-09T04:18:42;5.60;;;4.07;;
15637;SDS011;26604;53.596;10.042;2022-09-09T04:21:09;7.03;;;4.70;;
15637;SDS011;26604;53.596;10.042;2022-09-09T04:23:37;6.93;;;4.50;;
15637;SDS011;26604;53.596;10.042;2022-09-09T04:26:05;8.20;;;4.20;;
15637;SDS011;26604;53.596;10.042;2022-09-09T04:28:35;6.45;;;4.00;;
15637;SDS011;26604;53.596;10.042;2022-09-09T04:31:05;5.90;;;3.88;;
15637;SDS011;26604;53.596;10.042;2022-09-09T04:33:34;5.88;;;3.70;;
15637;SDS011;26604;53.596;10.042;2022-09-09T04:36:02;5.78;;;3.97;;
15637;SDS011;26604;53.596;10.042;2022-09-09T04:38:29;4.93;;;3.60;;
15637;SDS011;26604;53.596;10.042;2022-09-09T04:40:56;4.35;;;3.72;;
15637;SDS011;26604;53.596;10.042;2022-09-09T04:43:24;6.25;;;4.25;;
15637;SDS011;26604;53.596;10.042;2022-09-09T04:45:51;5.30;;;3.80;;
15637;SDS011;26604;53.596;10.042;2022-09-09T04:48:18;4.63;;;3.70;;
15637;SDS011;26604;53.596;10.042;2022-09-09T04:50:53;4.38;;;3.40;;
15637;SDS011;26604;53.596;10.042;2022-09-09T04:53:20;4.65;;;3.45;;
15637;SDS011;26604;53.596;10.042;2022-09-09T04:55:47;5.82;;;3.28;;
15637;SDS011;26604;53.596;10.042;2022-09-09T04:58:14;5.93;;;3.70;;
15637;SDS011;26604;53.596;10.042;2022-09-09T05:00:43;5.72;;;3.78;;
15637;SDS011;26604;53.596;10.042;2022-09-09T05:03:09;5.78;;;3.40;;
15637;SDS011;26604;53.596;10.042;2022-09-09T05:05:37;4.47;;;3.30;;
15637;SDS011;26604;53.596;10.042;2022-09-09T05:08:05;4.60;;;3.13;;
15637;SDS011;26604;53.596;10.042;2022-09-09T05:10:33;4.05;;;3.30;;
15637;SDS011;26604;53.596;10.042;2022-09-09T05:13:02;4.45;;;2.95;;
15637;SDS011;26604;53.596;10.042;2022-09-09T05:15:30;4.15;;;3.40;;
15637;SDS011;26604;53.596;10.042;2022-09-09T05:17:58;5.47;;;3.55;;
15637;SDS011;26604;53.596;10.042;2022-09-09T05:20:26;7.45;;;3.45;;
15637;SDS011;26604;53.596;10.042;2022-09-09T05:22:53;6.63;;;3.88;;
15637;SDS011;26604;53.596;10.042;2022-09-09T05:25:20;4.45;;;3.17;;
15637;SDS011;26604;53.596;10.042;2022-09-09T05:27:47;6.28;;;3.30;;
15637;SDS011;26604;53.596;10.042;2022-09-09T05:30:14;4.82;;;3.25;;
15637;SDS011;26604;53.596;10.042;2022-09-09T05:32:41;6.15;;;3.95;;
15637;SDS011;26604;53.596;10.042;2022-09-09T05:35:10;7.15;;;4.35;;
15637;SDS011;26604;53.596;10.042;2022-09-09T05:37:36;8.50;;;4.82;;
15637;SDS011;26604;53.596;10.042;2022-09-09T05:40:03;9.57;;;4.75;;
15637;SDS011;26604;53.596;10.042;2022-09-09T05:42:31;6.40;;;4.43;;
15637;SDS011;26604;53.596;10.042;2022-09-09T05:44:58;6.72;;;4.63;;
15637;SDS011;26604;53.596;10.042;2022-09-09T05:47:25;7.38;;;4.25;;
15637;SDS011;26604;53.596;10.042;2022-09-09T05:49:53;7.03;;;4.70;;
15637;SDS011;26604;53.596;10.042;2022-09-09T05:52:21;6.72;;;4.75;;
15637;SDS011;26604;53.596;10.042;2022-09-09T05:54:48;10.18;;;4.43;;
15637;SDS011;26604;53.596;10.042;2022-09-09T05:57:15;6.78;;;4.95;;
15637;SDS011;26604;53.596;10.042;2022-09-09T05:59:44;7.22;;;4.80;;
15637;SDS011;26604;53.596;10.042;2022-09-09T06:02:11;7.20;;;4.50;;
15637;SDS011;26604;53.596;10.042;2022-09-09T06:04:38;6.60;;;4.75;;
15637;SDS011;26604;53.596;10.042;2022-09-09T06:07:05;6.80;;;4.13;;
15637;SDS011;26604;53.596;10.042;2022-09-09T06:09:33;5.85;;;4.00;;
15637;SDS011;26604;53.596;10.042;2022-09-09T06:12:00;6.72;;;4.43;;
15637;SDS011;26604;53.596;10.042;2022-09-09T06:14:27;7.68;;;4.65;;
15637;SDS011;26604;53.596;10.042;2022-09-09T06:16:54;5.85;;;3.92;;
15637;SDS011;26604;53.596;10.042;2022-09-09T06:19:21;7.50;;;3.97;;
15637;SDS011;26604;53.596;10.042;2022-09-09T06:21:49;7.38;;;3.85;;
15637;SDS011;26604;53.596;10.042;2022-09-09T06:24:16;5.85;;;3.72;;
15637;SDS011;26604;53.596;10.042;2022-09-09T06:26:45;9.63;;;3.78;;
15637;SDS011;26604;53.596;10.042;2022-09-09T06:29:12;4.03;;;3.10;;
15637;SDS011;26604;53.596;10.042;2022-09-09T06:31:39;4.10;;;3.13;;
15637;SDS011;26604;53.596;10.042;2022-09-09T06:34:06;5.15;;;3.30;;
15637;SDS011;26604;53.596;10.042;2022-09-09T06:36:34;4.97;;;2.38;;
15637;SDS011;26604;53.596;10.042;2022-09-09T06:39:03;3.65;;;2.63;;
15637;SDS011;26604;53.596;10.042;2022-09-09T06:41:30;5.82;;;2.80;;
15637;SDS011;26604;53.596;10.042;2022-09-09T06:43:59;6.63;;;2.85;;
15637;SDS011;26604;53.596;10.042;2022-09-09T06:46:27;5.85;;;2.60;;
15637;SDS011;26604;53.596;10.042;2022-09-09T06:48:57;2.85;;;1.90;;
15637;SDS011;26604;53.596;10.042;2022-09-09T06:51:25;3.53;;;2.20;;
15637;SDS011;26604;53.596;10.042;2022-09-09T06:53:53;3.35;;;2.08;;
15637;SDS011;26604;53.596;10.042;2022-09-09T06:56:22;4.35;;;2.15;;
15637;SDS011;26604;53.596;10.042;2022-09-09T06:58:52;4.10;;;1.75;;
15637;SDS011;26604;53.596;10.042;2022-09-09T07:01:22;2.90;;;1.95;;
15637;SDS011;26604;53.596;10.042;2022-09-09T07:03:51;2.72;;;1.92;;
15637;SDS011;26604;53.596;10.042;2022-09-09T07:06:20;4.50;;;2.05;;
15637;SDS011;26604;53.596;10.042;2022-09-09T07:08:49;5.65;;;1.80;;
15637;SDS011;26604;53.596;10.042;2022-09-09T07:11:16;3.70;;;1.55;;
15637;SDS011;26604;53.596;10.042;2022-09-09T07:13:44;3.33;;;1.92;;
15637;SDS011;26604;53.596;10.042;2022-09-09T07:16:11;6.63;;;1.80;;
15637;SDS011;26604;53.596;10.042;2022-09-09T07:18:41;5.55;;;1.98;;
15637;SDS011;26604;53.596;10.042;2022-09-09T07:21:09;2.40;;;1.52;;
15637;SDS011;26604;53.596;10.042;2022-09-09T07:23:37;3.20;;;1.50;;
15637;SDS011;26604;53.596;10.042;2022-09-09T07:26:07;2.03;;;1.50;;
15637;SDS011;26604;53.596;10.042;2022-09-09T07:28:35;3.30;;;1.60;;
15637;SDS011;26604;53.596;10.042;2022-09-09T07:31:03;10.70;;;1.95;;
15637;SDS011;26604;53.596;10.042;2022-09-09T07:33:31;3.08;;;1.75;;
15637;SDS011;26604;53.596;10.042;2022-09-09T07:36:05;6.55;;;2.20;;
15637;SDS011;26604;53.596;10.042;2022-09-09T07:38:37;1.83;;;1.45;;
15637;SDS011;26604;53.596;10.042;2022-09-09T07:41:05;4.15;;;1.83;;
15637;SDS011;26604;53.596;10.042;2022-09-09T07:43:37;2.80;;;1.73;;
15637;SDS011;26604;53.596;10.042;2022-09-09T07:46:04;3.38;;;1.60;;
15637;SDS011;26604;53.596;10.042;2022-09-09T07:48:31;2.90;;;1.17;;
15637;SDS011;26604;53.596;10.042;2022-09-09T07:51:10;3.53;;;1.63;;
15637;SDS011;26604;53.596;10.042;2022-09-09T07:53:42;2.85;;;1.23;;
15637;SDS011;26604;53.596;10.042;2022-09-09T07:56:10;6.30;;;1.77;;
15637;SDS011;26604;53.596;10.042;2022-09-09T07:58:41;2.80;;;1.33;;
15637;SDS011;26604;53.596;10.042;2022-09-09T08:01:09;3.63;;;1.38;;
15637;SDS011;26604;53.596;10.042;2022-09-09T08:03:40;2.83;;;1.45;;
15637;SDS011;26604;53.596;10.042;2022-09-09T08:06:07;3.25;;;1.27;;
15637;SDS011;26604;53.596;10.042;2022-09-09T08:08:39;2.30;;;1.33;;
15637;SDS011;26604;53.596;10.042;2022-09-09T08:11:09;1.73;;;1.20;;
15637;SDS011;26604;53.596;10.042;2022-09-09T08:13:37;1.70;;;1.20;;
15637;SDS011;26604;53.596;10.042;2022-09-09T08:16:05;4.30;;;1.38;;
15637;SDS011;26604;53.596;10.042;2022-09-09T08:18:33;4.32;;;1.33;;
15637;SDS011;26604;53.596;10.042;2022-09-09T08:21:07;2.22;;;1.30;;
15637;SDS011;26604;53.596;10.042;2022-09-09T08:23:38;4.68;;;1.60;;
15637;SDS011;26604;53.596;10.042;2022-09-09T08:26:06;3.33;;;1.35;;
15637;SDS011;26604;53.596;10.042;2022-09-09T08:28:36;4.68;;;1.70;;
15637;SDS011;26604;53.596;10.042;2022-09-09T08:31:10;3.35;;;1.30;;
15637;SDS011;26604;53.596;10.042;2022-09-09T08:33:38;3.80;;;1.30;;
15637;SDS011;26604;53.596;10.042;2022-09-09T08:36:08;2.72;;;1.20;;
15637;SDS011;26604;53.596;10.042;2022-09-09T08:38:37;3.92;;;1.40;;
15637;SDS011;26604;53.596;10.042;2022-09-09T08:41:13;4.07;;;1.40;;
15637;SDS011;26604;53.596;10.042;2022-09-09T08:43:59;5.38;;;1.50;;
15637;SDS011;26604;53.596;10.042;2022-09-09T08:46:32;2.97;;;1.00;;
15637;SDS011;26604;53.596;10.042;2022-09-09T08:49:11;3.50;;;1.25;;
15637;SDS011;26604;53.596;10.042;2022-09-09T08:51:54;1.67;;;1.17;;
15637;SDS011;26604;53.596;10.042;2022-09-09T08:54:23;5.10;;;1.08;;
15637;SDS011;26604;53.596;10.042;2022-09-09T08:56:51;2.25;;;1.30;;
15637;SDS011;26604;53.596;10.042;2022-09-09T08:59:18;2.90;;;0.93;;
15637;SDS011;26604;53.596;10.042;2022-09-09T09:01:49;3.55;;;1.08;;
15637;SDS011;26604;53.596;10.042;2022-09-09T09:04:33;3.35;;;0.98;;
15637;SDS011;26604;53.596;10.042;2022-09-09T09:07:11;3.33;;;0.80;;
15637;SDS011;26604;53.596;10.042;2022-09-09T09:09:50;3.08;;;1.15;;
15637;SDS011;26604;53.596;10.042;2022-09-09T09:12:24;4.20;;;1.30;;
15637;SDS011;26604;53.596;10.042;2022-09-09T09:14:54;2.75;;;1.23;;
15637;SDS011;26604;53.596;10.042;2022-09-09T09:17:23;1.88;;;0.85;;
15637;SDS011;26604;53.596;10.042;2022-09-09T09:19:52;1.27;;;1.00;;
15637;SDS011;26604;53.596;10.042;2022-09-09T09:22:22;2.10;;;1.33;;
15637;SDS011;26604;53.596;10.042;2022-09-09T09:24:53;3.28;;;1.00;;
15637;SDS011;26604;53.596;10.042;2022-09-09T09:27:25;1.67;;;0.95;;
15637;SDS011;26604;53.596;10.042;2022-09-09T09:29:58;7.32;;;1.30;;
15637;SDS011;26604;53.596;10.042;2022-09-09T09:32:28;2.75;;;1.10;;
15637;SDS011;26604;53.596;10.042;2022-09-09T09:34:59;1.88;;;0.98;;
15637;SDS011;26604;53.596;10.042;2022-09-09T09:37:31;2.55;;;1.10;;
15637;SDS011;26604;53.596;10.042;2022-09-09T09:40:07;2.60;;;1.10;;
15637;SDS011;26604;53.596;10.042;2022-09-09T09:42:35;2.63;;;1.30;;
15637;SDS011;26604;53.596;10.042;2022-09-09T09:45:14;2.45;;;1.17;;
15637;SDS011;26604;53.596;10.042;2022-09-09T09:47:45;3.92;;;1.10;;
15637;SDS011;26604;53.596;10.042;2022-09-09T09:50:18;3.83;;;0.93;;
15637;SDS011;26604;53.596;10.042;2022-09-09T09:52:54;2.63;;;1.25;;
15637;SDS011;26604;53.596;10.042;2022-09-09T09:55:22;1.70;;;1.08;;
15637;SDS011;26604;53.596;10.042;2022-09-09T09:57:50;3.47;;;1.20;;
15637;SDS011;26604;53.596;10.042;2022-09-09T10:00:19;1.35;;;1.00;;
15637;SDS011;26604;53.596;10.042;2022-09-09T10:02:48;3.58;;;1.27;;
15637;SDS011;26604;53.596;10.042;2022-09-09T10:05:18;3.30;;;1.10;;
15637;SDS011;26604;53.596;10.042;2022-09-09T10:07:46;1.92;;;1.00;;
15637;SDS011;26604;53.596;10.042;2022-09-09T10:10:18;2.40;;;0.80;;
15637;SDS011;26604;53.596;10.042;2022-09-09T10:12:53;1.50;;;1.00;;
15637;SDS011;26604;53.596;10.042;2022-09-09T10:15:30;2.60;;;0.98;;
15637;SDS011;26604;53.596;10.042;2022-09-09T10:18:04;2.35;;;0.95;;
15637;SDS011;26604;53.596;10.042;2022-09-09T10:20:44;5.40;;;1.13;;
15637;SDS011;26604;53.596;10.042;2022-09-09T10:23:23;3.85;;;1.00;;
15637;SDS011;26604;53.596;10.042;2022-09-09T10:26:05;3.95;;;1.00;;
15637;SDS011;26604;53.596;10.042;2022-09-09T10:31:44;5.30;;;1.35;;
15637;SDS011;26604;53.596;10.042;2022-09-09T10:34:27;2.83;;;0.80;;
15637;SDS011;26604;53.596;10.042;2022-09-09T10:37:11;4.43;;;1.98;;
15637;SDS011;26604;53.596;10.042;2022-09-09T10:39:48;6.13;;;1.40;;
15637;SDS011;26604;53.596;10.042;2022-09-09T10:42:20;4.72;;;1.65;;
15637;SDS011;26604;53.596;10.042;2022-09-09T10:44:59;5.35;;;1.33;;
15637;SDS011;26604;53.596;10.042;2022-09-09T10:47:42;4.05;;;1.27;;
15637;SDS011;26604;53.596;10.042;2022-09-09T10:50:25;4.93;;;1.27;;
15637;SDS011;26604;53.596;10.042;2022-09-09T10:53:12;5.78;;;1.20;;
15637;SDS011;26604;53.596;10.042;2022-09-09T10:55:48;2.67;;;1.40;;
15637;SDS011;26604;53.596;10.042;2022-09-09T10:58:19;5.57;;;1.45;;
15637;SDS011;26604;53.596;10.042;2022-09-09T11:00:55;3.45;;;1.10;;
15637;SDS011;26604;53.596;10.042;2022-09-09T11:03:27;3.85;;;1.73;;
15637;SDS011;26604;53.596;10.042;2022-09-09T11:05:56;2.08;;;1.20;;
15637;SDS011;26604;53.596;10.042;2022-09-09T11:08:26;5.20;;;1.40;;
15637;SDS011;26604;53.596;10.042;2022-09-09T11:10:57;5.10;;;1.60;;
15637;SDS011;26604;53.596;10.042;2022-09-09T11:13:30;3.80;;;1.40;;
15637;SDS011;26604;53.596;10.042;2022-09-09T11:16:04;3.75;;;1.40;;
15637;SDS011;26604;53.596;10.042;2022-09-09T11:18:39;3.10;;;1.33;;
15637;SDS011;26604;53.596;10.042;2022-09-09T11:21:11;4.70;;;1.52;;
15637;SDS011;26604;53.596;10.042;2022-09-09T11:23:45;2.22;;;1.45;;
15637;SDS011;26604;53.596;10.042;2022-09-09T11:26:17;3.03;;;1.50;;
15637;SDS011;26604;53.596;10.042;2022-09-09T11:28:54;5.95;;;2.35;;
15637;SDS011;26604;53.596;10.042;2022-09-09T11:31:40;4.82;;;2.08;;
15637;SDS011;26604;53.596;10.042;2022-09-09T11:34:17;2.95;;;1.50;;
15637;SDS011;26604;53.596;10.042;2022-09-09T11:42:31;2.40;;;1.35;;
15637;SDS011;26604;53.596;10.042;2022-09-09T11:45:07;3.35;;;1.73;;
15637;SDS011;26604;53.596;10.042;2022-09-09T11:47:36;3.95;;;1.55;;
15637;SDS011;26604;53.596;10.042;2022-09-09T11:50:10;3.75;;;1.50;;
15637;SDS011;26604;53.596;10.042;2022-09-09T11:53:03;3.60;;;1.50;;
15637;SDS011;26604;53.596;10.042;2022-09-09T11:55:40;5.63;;;1.80;;
15637;SDS011;26604;53.596;10.042;2022-09-09T11:58:14;3.55;;;1.15;;
15637;SDS011;26604;53.596;10.042;2022-09-09T12:00:45;4.40;;;1.65;;
15637;SDS011;26604;53.596;10.042;2022-09-09T12:06:15;3.38;;;1.30;;
15637;SDS011;26604;53.596;10.042;2022-09-09T12:08:45;2.17;;;1.10;;
15637;SDS011;26604;53.596;10.042;2022-09-09T12:11:24;3.40;;;1.40;;
15637;SDS011;26604;53.596;10.042;2022-09-09T12:13:52;3.20;;;1.50;;
15637;SDS011;26604;53.596;10.042;2022-09-09T12:16:29;5.40;;;1.30;;
15637;SDS011;26604;53.596;10.042;2022-09-09T12:19:03;4.43;;;1.40;;
15637;SDS011;26604;53.596;10.042;2022-09-09T12:21:33;3.72;;;1.17;;
15637;SDS011;26604;53.596;10.042;2022-09-09T12:24:05;2.53;;;1.23;;
15637;SDS011;26604;53.596;10.042;2022-09-09T12:26:36;2.15;;;1.40;;
15637;SDS011;26604;53.596;10.042;2022-09-09T12:29:19;2.15;;;1.13;;
15637;SDS011;26604;53.596;10.042;2022-09-09T12:31:53;1.88;;;1.20;;
15637;SDS011;26604;53.596;10.042;2022-09-09T12:34:30;2.38;;;1.40;;
15637;SDS011;26604;53.596;10.042;2022-09-09T12:37:03;1.70;;;1.08;;
15637;SDS011;26604;53.596;10.042;2022-09-09T12:39:42;2.30;;;1.20;;
15637;SDS011;26604;53.596;10.042;2022-09-09T12:42:16;2.20;;;1.15;;
15637;SDS011;26604;53.596;10.042;2022-09-09T12:44:54;2.72;;;1.40;;
15637;SDS011;26604;53.596;10.042;2022-09-09T12:47:24;2.45;;;1.73;;
15637;SDS011;26604;53.596;10.042;2022-09-09T12:49:56;2.97;;;1.27;;
15637;SDS011;26604;53.596;10.042;2022-09-09T12:52:24;2.60;;;1.30;;
15637;SDS011;26604;53.596;10.042;2022-09-09T12:54:55;8.65;;;1.40;;
15637;SDS011;26604;53.596;10.042;2022-09-09T12:57:23;2.72;;;1.23;;
15637;SDS011;26604;53.596;10.042;2022-09-09T12:59:52;4.57;;;1.45;;
15637;SDS011;26604;53.596;10.042;2022-09-09T13:02:31;3.90;;;1.20;;
15637;SDS011;26604;53.596;10.042;2022-09-09T13:05:06;4.38;;;1.50;;
15637;SDS011;26604;53.596;10.042;2022-09-09T13:07:39;3.38;;;1.35;;
15637;SDS011;26604;53.596;10.042;2022-09-09T13:10:07;2.05;;;1.05;;
15637;SDS011;26604;53.596;10.042;2022-09-09T13:12:37;2.30;;;1.45;;
15637;SDS011;26604;53.596;10.042;2022-09-09T13:15:05;2.35;;;1.08;;
15637;SDS011;26604;53.596;10.042;2022-09-09T13:17:48;3.00;;;1.17;;
15637;SDS011;26604;53.596;10.042;2022-09-09T13:20:17;4.35;;;1.38;;
15637;SDS011;26604;53.596;10.042;2022-09-09T13:22:47;2.47;;;1.45;;
15637;SDS011;26604;53.596;10.042;2022-09-09T13:25:19;2.97;;;1.60;;
15637;SDS011;26604;53.596;10.042;2022-09-09T13:27:55;2.90;;;1.45;;
15637;SDS011;26604;53.596;10.042;2022-09-09T13:30:25;2.72;;;1.52;;
15637;SDS011;26604;53.596;10.042;2022-09-09T13:33:02;3.05;;;1.50;;
15637;SDS011;26604;53.596;10.042;2022-09-09T13:35:48;2.45;;;1.60;;
15637;SDS011;26604;53.596;10.042;2022-09-09T13:38:18;2.60;;;1.50;;
15637;SDS011;26604;53.596;10.042;2022-09-09T13:43:31;3.50;;;1.67;;
15637;SDS011;26604;53.596;10.042;2022-09-09T13:46:01;1.95;;;1.40;;
15637;SDS011;26604;53.596;10.042;2022-09-09T13:48:31;5.15;;;1.40;;
15637;SDS011;26604;53.596;10.042;2022-09-09T13:51:01;2.22;;;1.38;;
15637;SDS011;26604;53.596;10.042;2022-09-09T13:53:30;2.30;;;1.48;;
15637;SDS011;26604;53.596;10.042;2022-09-09T13:55:57;5.25;;;1.65;;
15637;SDS011;26604;53.596;10.042;2022-09-09T13:58:25;3.13;;;1.55;;
15637;SDS011;26604;53.596;10.042;2022-09-09T14:00:52;3.58;;;1.42;;
15637;SDS011;26604;53.596;10.042;2022-09-09T14:03:20;3.17;;;1.50;;
15637;SDS011;26604;53.596;10.042;2022-09-09T14:05:48;3.85;;;1.40;;
15637;SDS011;26604;53.596;10.042;2022-09-09T14:08:25;2.88;;;1.20;;
15637;SDS011;26604;53.596;10.042;2022-09-09T14:10:53;4.18;;;1.75;;
15637;SDS011;26604;53.596;10.042;2022-09-09T14:13:24;4.65;;;1.88;;
15637;SDS011;26604;53.596;10.042;2022-09-09T14:15:51;5.28;;;1.65;;
15637;SDS011;26604;53.596;10.042;2022-09-09T14:18:18;3.70;;;1.60;;
15637;SDS011;26604;53.596;10.042;2022-09-09T14:20:48;3.88;;;1.63;;
15637;SDS011;26604;53.596;10.042;2022-09-09T14:23:16;4.35;;;1.70;;
15637;SDS011;26604;53.596;10.042;2022-09-09T14:25:43;3.60;;;1.50;;
15637;SDS011;26604;53.596;10.042;2022-09-09T14:28:11;3.95;;;1.60;;
15637;SDS011;26604;53.596;10.042;2022-09-09T14:30:39;3.47;;;1.40;;
15637;SDS011;26604;53.596;10.042;2022-09-09T14:33:07;4.97;;;1.88;;
15637;SDS011;26604;53.596;10.042;2022-09-09T14:35:35;3.50;;;1.50;;
15637;SDS011;26604;53.596;10.042;2022-09-09T14:38:04;3.25;;;2.08;;
15637;SDS011;26604;53.596;10.042;2022-09-09T14:40:31;4.32;;;1.98;;
15637;SDS011;26604;53.596;10.042;2022-09-09T14:43:00;3.10;;;1.95;;
15637;SDS011;26604;53.596;10.042;2022-09-09T14:45:27;7.78;;;2.20;;
15637;SDS011;26604;53.596;10.042;2022-09-09T14:47:54;3.85;;;2.25;;
15637;SDS011;26604;53.596;10.042;2022-09-09T14:50:21;6.93;;;2.00;;
15637;SDS011;26604;53.596;10.042;2022-09-09T14:52:49;5.72;;;1.98;;
15637;SDS011;26604;53.596;10.042;2022-09-09T14:55:18;6.75;;;1.80;;
15637;SDS011;26604;53.596;10.042;2022-09-09T14:57:45;6.50;;;1.73;;
15637;SDS011;26604;53.596;10.042;2022-09-09T15:00:12;6.03;;;2.00;;
15637;SDS011;26604;53.596;10.042;2022-09-09T15:02:40;4.88;;;2.28;;
15637;SDS011;26604;53.596;10.042;2022-09-09T15:05:07;6.28;;;2.55;;
15637;SDS011;26604;53.596;10.042;2022-09-09T15:07:34;3.28;;;1.85;;